Skip Navigation LinksHome page > Weather > Current weather Skip Navigation Links

Current Weather

Rochelle Muni Airport-Koritz Field, Rochelle, Ill.

For information only: do not use for flight planning or navigation.
Latest weather
Observation time Friday, May 29, 2020 5:55 PM CDT
Local time Friday, May 29, 2020 6:28 PM CDT
Flight conditions Visual Meteorological Conditions
Winds
Wind direction North-Northwest (330°)
Wind speed 17 mph
Wind gusting to 24 mph
Visibility 10 mi.
Sky condition
Ceiling unlimited
Cloud layer scattered clouds 5,000 ft.
Temperature 65°F
Dewpoint 48°F
Altimeter 30.07 in.Hg
Derived measurements
Relative humidity 55%
Density altitude 1151 ft.
Remarks
Fully automated report.
Automated weather observing station with precipitation discriminator.
METAR KRPJ 292255Z AUTO 33015G21KT 10SM SCT050 18/09 A3007 RMK AO2 T01820090

Settings

Location code

InnerDrive.Weather 4.0.6770.0 Release CLR 4.0.30319.42000
Copyright ©2018 Inner Drive Technology. All rights reserved. Portions Copyright ©1986-2018 David Braverman.

Find weather

Site navigation


Skip Navigation Links

Place info

Page info

PayPal - The safer, easier way to pay online!

Return home.

Copyright ©2020 Inner Drive Technology. Purveyors of fine, hand-crafted computer software. Page printed 2020-05-29T23:28:37 UTC.